createdAt,value
2017-10-01T00:24:47.571Z,8.70
2017-10-01T00:27:15.152Z,8.60
2017-10-01T00:29:42.742Z,8.60
2017-10-01T00:32:10.360Z,8.50
2017-10-01T00:34:38.680Z,8.40
2017-10-01T00:37:06.284Z,8.30
2017-10-01T00:39:33.852Z,8.40
2017-10-01T00:42:01.421Z,8.20
2017-10-01T00:44:28.999Z,8.00
2017-10-01T00:46:56.594Z,8.00
2017-10-01T00:49:24.180Z,8.10
2017-10-01T00:51:51.855Z,8.20
2017-10-01T00:54:19.404Z,8.10
2017-10-01T00:56:46.998Z,8.00
2017-10-01T00:59:15.331Z,8.00
2017-10-01T01:01:42.890Z,8.00
2017-10-01T01:04:10.488Z,8.00
2017-10-01T01:06:38.059Z,8.30
2017-10-01T01:09:06.416Z,8.10
2017-10-01T01:11:33.979Z,8.10
2017-10-01T01:14:01.562Z,8.00
2017-10-01T01:16:29.902Z,7.90
2017-10-01T01:18:57.652Z,7.90
2017-10-01T01:21:25.233Z,7.90
2017-10-01T01:23:52.782Z,7.90
2017-10-01T01:42:11.859Z,8.40
2017-10-01T01:44:39.515Z,8.40
2017-10-01T01:47:07.071Z,8.40
2017-10-01T01:49:34.646Z,8.40
2017-10-01T01:52:02.210Z,8.40
2017-10-01T01:54:29.770Z,8.30
2017-10-01T01:56:57.355Z,8.40
2017-10-01T01:59:24.931Z,8.30
2017-10-01T02:01:52.535Z,8.30
2017-10-01T02:04:20.093Z,8.30
2017-10-01T02:06:47.683Z,8.20
2017-10-01T02:09:15.262Z,8.20
2017-10-01T02:11:42.838Z,8.20
2017-10-01T02:14:10.413Z,8.30
2017-10-01T02:16:37.999Z,8.30
2017-10-01T02:19:05.594Z,8.40
2017-10-01T02:21:33.146Z,8.70
2017-10-01T02:24:00.770Z,8.70
2017-10-01T02:26:29.091Z,8.60
2017-10-01T02:28:56.684Z,8.60
2017-10-01T02:31:24.228Z,8.60
2017-10-01T02:33:51.810Z,8.60
2017-10-01T02:36:20.144Z,8.40
2017-10-01T02:38:47.709Z,8.40
2017-10-01T02:41:15.270Z,8.20
2017-10-01T02:43:42.839Z,8.10
2017-10-01T02:46:10.415Z,8.10
2017-10-01T02:48:37.992Z,8.10
2017-10-01T02:51:05.547Z,8.20
2017-10-01T02:53:33.179Z,8.20
2017-10-01T02:56:00.855Z,8.40
2017-10-01T02:58:28.455Z,8.40
2017-10-01T03:00:56.772Z,8.50
2017-10-01T03:03:24.359Z,8.50
2017-10-01T03:05:51.936Z,8.50
2017-10-01T03:08:19.472Z,8.60
2017-10-01T03:10:47.042Z,8.60
2017-10-01T03:13:14.640Z,8.60
2017-10-01T03:15:42.972Z,8.50
2017-10-01T03:18:10.543Z,8.50
2017-10-01T03:20:38.129Z,8.50
2017-10-01T03:23:05.694Z,8.60
2017-10-01T03:25:33.275Z,8.60
2017-10-01T03:28:00.825Z,8.60
2017-10-01T03:30:28.422Z,8.50
2017-10-01T03:32:55.991Z,8.50
2017-10-01T03:35:23.727Z,8.50
2017-10-01T03:37:51.299Z,8.50
2017-10-01T03:40:19.702Z,8.50
2017-10-01T03:42:47.294Z,8.50
2017-10-01T03:45:14.882Z,8.50
2017-10-01T03:47:43.351Z,8.50
2017-10-01T03:50:10.920Z,8.50
2017-10-01T03:52:38.544Z,8.50
2017-10-01T03:55:33.687Z,8.40
2017-10-01T03:58:02.039Z,8.30
2017-10-01T04:00:29.594Z,8.30
2017-10-01T04:02:57.159Z,8.40
2017-10-01T04:05:24.743Z,8.40
2017-10-01T04:07:52.334Z,8.30
2017-10-01T04:10:20.670Z,8.40
2017-10-01T04:12:48.241Z,8.30
2017-10-01T04:15:15.997Z,8.30
2017-10-01T04:17:43.687Z,8.30
2017-10-01T04:20:12.030Z,8.30
2017-10-01T04:22:57.757Z,8.30
2017-10-01T04:25:26.102Z,8.30
2017-10-01T04:27:54.626Z,8.30
2017-10-01T04:30:22.186Z,8.30
2017-10-01T04:32:49.764Z,8.40
2017-10-01T04:35:18.116Z,8.30
2017-10-01T04:37:45.670Z,8.30
2017-10-01T04:40:13.271Z,8.40
2017-10-01T04:42:41.600Z,8.30
2017-10-01T04:45:09.288Z,8.30
2017-10-01T04:47:36.870Z,8.30
2017-10-01T04:50:05.219Z,8.30
2017-10-01T04:52:33.765Z,8.30
2017-10-01T04:55:01.410Z,8.30
2017-10-01T04:57:28.982Z,8.30
2017-10-01T04:59:56.547Z,8.30
2017-10-01T05:02:24.121Z,8.30
2017-10-01T05:04:51.682Z,8.40
2017-10-01T05:07:19.273Z,8.40
2017-10-01T05:09:46.842Z,8.40
2017-10-01T05:12:14.406Z,8.50
2017-10-01T05:14:42.011Z,8.50
2017-10-01T05:17:10.521Z,8.40
2017-10-01T05:19:38.095Z,8.40
2017-10-01T05:22:05.692Z,8.30
2017-10-01T05:24:50.275Z,8.30
2017-10-01T05:27:17.871Z,8.30
2017-10-01T05:29:45.437Z,8.30
2017-10-01T05:32:13.035Z,8.30
2017-10-01T05:34:40.649Z,8.30
2017-10-01T05:37:08.218Z,8.30
2017-10-01T05:39:35.798Z,8.40
2017-10-01T05:42:03.380Z,8.50
2017-10-01T05:44:30.945Z,8.50
2017-10-01T05:46:59.293Z,8.60
2017-10-01T05:49:26.858Z,8.60
2017-10-01T05:51:54.446Z,8.60
2017-10-01T05:54:22.794Z,8.70
2017-10-01T05:56:50.416Z,8.70
2017-10-01T05:59:18.753Z,8.70
2017-10-01T06:01:46.387Z,8.70
2017-10-01T06:04:14.020Z,8.80
2017-10-01T06:06:42.380Z,8.80
2017-10-01T06:09:09.974Z,8.70
2017-10-01T06:11:38.308Z,8.80
2017-10-01T06:14:05.879Z,8.80
2017-10-01T06:16:33.470Z,8.90
2017-10-01T06:19:01.770Z,9.00
2017-10-01T06:21:29.358Z,9.00
2017-10-01T06:23:56.934Z,9.00
2017-10-01T06:26:24.524Z,9.00
2017-10-01T06:28:52.887Z,9.10
2017-10-01T06:31:20.529Z,9.10
2017-10-01T06:33:48.093Z,9.10
2017-10-01T06:36:15.683Z,9.20
2017-10-01T06:38:44.015Z,9.30
2017-10-01T06:41:11.581Z,9.30
2017-10-01T06:43:39.142Z,9.30
2017-10-01T06:46:06.729Z,9.30
2017-10-01T06:48:34.298Z,9.30
2017-10-01T06:51:01.899Z,9.40
2017-10-01T06:53:30.244Z,9.60
2017-10-01T06:55:57.801Z,9.60
2017-10-01T06:58:25.386Z,9.80
2017-10-01T07:00:53.703Z,9.90
2017-10-01T07:03:21.297Z,9.90
2017-10-01T07:05:48.845Z,9.90
2017-10-01T07:08:16.441Z,9.80
2017-10-01T07:10:44.793Z,9.70
2017-10-01T07:13:12.468Z,9.70
2017-10-01T07:15:40.047Z,9.70
2017-10-01T07:18:07.626Z,9.80
2017-10-01T07:20:35.945Z,10.10
2017-10-01T07:23:03.523Z,10.10
2017-10-01T07:25:31.870Z,10.10
2017-10-01T07:27:59.457Z,10.10
2017-10-01T07:30:27.023Z,10.20
2017-10-01T07:32:54.624Z,10.10
2017-10-01T07:35:23.020Z,10.10
2017-10-01T07:37:50.614Z,10.00
2017-10-01T07:40:18.280Z,10.10
2017-10-01T07:42:45.850Z,10.10
2017-10-01T07:45:13.526Z,10.10
2017-10-01T07:47:41.091Z,10.30
2017-10-01T07:50:08.668Z,10.40
2017-10-01T07:52:36.230Z,10.60
2017-10-01T07:55:04.726Z,10.60
2017-10-01T07:57:33.185Z,10.70
2017-10-01T08:00:00.770Z,10.70
2017-10-01T08:02:29.145Z,10.90
2017-10-01T08:04:57.477Z,10.90
2017-10-01T08:07:25.038Z,10.90
2017-10-01T08:09:53.440Z,11.00
2017-10-01T08:12:21.026Z,11.10
2017-10-01T08:14:49.379Z,11.40
2017-10-01T08:17:17.737Z,11.50
2017-10-01T08:19:45.395Z,11.50
2017-10-01T08:22:24.066Z,11.50
2017-10-01T08:24:52.432Z,11.70
2017-10-01T08:27:20.014Z,11.70
2017-10-01T08:29:48.346Z,11.90
2017-10-01T08:32:15.938Z,11.90
2017-10-01T08:34:44.290Z,12.40
2017-10-01T08:37:11.887Z,12.40
2017-10-01T08:39:39.885Z,12.80
2017-10-01T08:42:07.462Z,13.10
2017-10-01T08:44:35.042Z,13.90
2017-10-01T08:47:02.633Z,14.60
2017-10-01T08:49:30.198Z,15.00
2017-10-01T08:52:07.970Z,15.50
2017-10-01T08:54:35.532Z,15.80
2017-10-01T08:57:13.256Z,15.90
2017-10-01T08:59:40.829Z,16.00
2017-10-01T09:02:09.189Z,17.30
2017-10-01T09:04:36.767Z,17.20
2017-10-01T09:07:05.124Z,16.40
2017-10-01T09:09:32.708Z,16.40
2017-10-01T09:12:00.284Z,16.60
2017-10-01T09:14:28.647Z,17.30
2017-10-01T09:16:56.367Z,17.30
2017-10-01T09:19:23.942Z,17.40
2017-10-01T09:21:51.540Z,17.50
2017-10-01T09:24:19.876Z,17.40
2017-10-01T09:26:47.445Z,17.40
2017-10-01T09:29:15.177Z,17.90
2017-10-01T09:31:42.751Z,17.80
2017-10-01T09:34:10.332Z,18.50
2017-10-01T09:36:37.908Z,18.50
2017-10-01T09:39:05.462Z,18.30
2017-10-01T09:41:33.170Z,18.30
2017-10-01T09:44:01.550Z,19.00
2017-10-01T09:46:29.914Z,19.00
2017-10-01T09:48:57.519Z,19.00
2017-10-01T09:51:25.110Z,18.80
2017-10-01T09:53:52.713Z,18.70
2017-10-01T09:56:21.075Z,19.60
2017-10-01T09:58:48.651Z,19.50
2017-10-01T10:01:16.993Z,19.30
2017-10-01T10:03:44.566Z,19.30
2017-10-01T10:06:12.155Z,18.90
2017-10-01T10:08:40.495Z,18.60
2017-10-01T10:11:08.097Z,18.60
2017-10-01T10:13:36.461Z,19.70
2017-10-01T10:16:04.031Z,19.70
2017-10-01T10:18:31.632Z,19.30
2017-10-01T10:20:59.225Z,19.60
2017-10-01T10:23:26.830Z,20.40
2017-10-01T10:25:55.158Z,20.60
2017-10-01T10:28:22.719Z,20.60
2017-10-01T10:30:50.307Z,19.60
2017-10-01T10:33:17.879Z,20.30
2017-10-01T10:35:45.462Z,20.40
2017-10-01T10:38:13.789Z,19.00
2017-10-01T10:40:41.350Z,19.00
2017-10-01T10:43:08.959Z,19.40
2017-10-01T10:45:36.518Z,19.80
2017-10-01T10:48:04.845Z,19.50
2017-10-01T10:50:32.428Z,19.40
2017-10-01T10:53:00.010Z,19.70
2017-10-01T10:55:27.781Z,19.60
2017-10-01T10:57:55.362Z,19.60
2017-10-01T11:00:23.681Z,20.80
2017-10-01T11:02:51.257Z,20.80
2017-10-01T11:05:18.867Z,20.70
2017-10-01T11:07:47.239Z,21.10
2017-10-01T11:10:14.829Z,21.10
2017-10-01T11:12:42.418Z,21.40
2017-10-01T11:15:09.986Z,20.40
2017-10-01T11:17:37.567Z,19.50
2017-10-01T11:20:05.118Z,19.90
2017-10-01T11:22:32.707Z,19.70
2017-10-01T11:25:00.266Z,19.60
2017-10-01T11:27:28.617Z,20.00
2017-10-01T11:29:56.178Z,20.00
2017-10-01T11:32:23.749Z,20.90
2017-10-01T11:34:51.365Z,20.90
2017-10-01T11:37:19.687Z,20.70
2017-10-01T11:39:47.257Z,20.70
2017-10-01T11:42:14.834Z,20.60
2017-10-01T11:44:42.393Z,20.90
2017-10-01T11:47:10.155Z,20.60
2017-10-01T11:49:37.722Z,20.30
2017-10-01T11:52:05.288Z,20.40
2017-10-01T11:54:32.865Z,20.70
2017-10-01T11:57:01.285Z,21.90
2017-10-01T11:59:28.853Z,21.80
2017-10-01T12:01:56.414Z,21.80
2017-10-01T12:04:24.782Z,19.90
2017-10-01T12:06:53.126Z,19.40
2017-10-01T12:09:20.712Z,19.40
2017-10-01T12:11:49.042Z,19.80
2017-10-01T12:14:16.627Z,19.70
2017-10-01T12:16:44.198Z,19.60
2017-10-01T12:19:11.769Z,19.60
2017-10-01T12:21:40.128Z,19.30
2017-10-01T12:24:07.699Z,19.30
2017-10-01T12:26:35.308Z,19.80
2017-10-01T12:29:02.878Z,19.80
2017-10-01T12:31:30.483Z,19.70
2017-10-01T12:33:58.075Z,19.60
2017-10-01T12:36:26.421Z,20.60
2017-10-01T12:38:54.024Z,20.50
2017-10-01T12:41:21.584Z,21.90
2017-10-01T12:43:49.970Z,21.10
2017-10-01T12:46:17.564Z,21.10
2017-10-01T12:48:45.145Z,20.70
2017-10-01T12:51:12.720Z,20.70
2017-10-01T12:53:40.283Z,20.20
2017-10-01T12:56:07.892Z,19.80
2017-10-01T12:58:35.464Z,18.90
2017-10-01T13:01:03.066Z,18.70
2017-10-01T13:03:30.717Z,18.50
2017-10-01T13:05:58.455Z,18.40
2017-10-01T13:08:26.038Z,18.60
2017-10-01T13:10:53.604Z,19.10
2017-10-01T13:13:21.188Z,19.20
2017-10-01T13:15:48.756Z,19.20
2017-10-01T13:18:16.319Z,19.00
2017-10-01T13:20:43.919Z,18.70
2017-10-01T13:23:11.567Z,18.60
2017-10-01T13:25:39.906Z,18.80
2017-10-01T13:28:07.525Z,18.80
2017-10-01T13:30:35.123Z,19.20
2017-10-01T13:33:02.733Z,19.20
2017-10-01T13:35:31.106Z,19.30
2017-10-01T13:37:59.471Z,19.00
2017-10-01T13:40:27.056Z,19.00
2017-10-01T13:42:55.408Z,19.60
2017-10-01T13:45:22.966Z,19.60
2017-10-01T13:47:50.555Z,19.60
2017-10-01T13:50:18.286Z,19.50
2017-10-01T13:52:45.851Z,19.60
2017-10-01T13:55:13.520Z,20.00
2017-10-01T13:57:41.126Z,20.40
2017-10-01T14:00:08.715Z,20.50
2017-10-01T14:02:36.310Z,20.70
2017-10-01T14:05:09.586Z,20.40
2017-10-01T14:07:37.185Z,19.60
2017-10-01T14:10:04.784Z,19.50
2017-10-01T14:12:32.470Z,19.50
2017-10-01T14:15:00.072Z,19.10
2017-10-01T14:17:28.447Z,19.40
2017-10-01T14:19:56.826Z,19.00
2017-10-01T14:22:24.479Z,19.00
2017-10-01T14:24:52.196Z,18.60
2017-10-01T14:27:19.840Z,18.40
2017-10-01T14:29:48.183Z,18.00
2017-10-01T14:32:15.763Z,18.00
2017-10-01T14:34:43.927Z,17.90
2017-10-01T14:37:11.492Z,17.90
2017-10-01T14:39:39.063Z,17.90
2017-10-01T14:42:06.642Z,18.00
2017-10-01T14:44:34.979Z,18.30
2017-10-01T14:47:02.827Z,18.30
2017-10-01T14:49:30.400Z,18.40
2017-10-01T14:51:57.977Z,18.30
2017-10-01T14:54:25.669Z,18.20
2017-10-01T14:56:53.229Z,18.10
2017-10-01T14:59:20.813Z,18.20
2017-10-01T15:01:49.153Z,18.30
2017-10-01T15:04:16.714Z,18.30
2017-10-01T15:06:44.302Z,18.30
2017-10-01T15:09:12.638Z,18.30
2017-10-01T15:11:40.236Z,18.30
2017-10-01T15:14:07.850Z,18.20
2017-10-01T15:16:35.430Z,18.00
2017-10-01T15:19:03.042Z,17.90
2017-10-01T15:21:31.454Z,17.60
2017-10-01T15:23:59.033Z,17.60
2017-10-01T15:26:26.597Z,17.50
2017-10-01T15:28:54.343Z,17.30
2017-10-01T15:31:22.024Z,17.20
2017-10-01T15:33:49.599Z,17.10
2017-10-01T15:36:17.184Z,17.00
2017-10-01T15:38:44.757Z,17.00
2017-10-01T15:41:12.344Z,16.90
2017-10-01T15:43:40.886Z,16.90
2017-10-01T15:46:09.392Z,16.90
2017-10-01T15:48:36.996Z,16.80
2017-10-01T15:51:04.580Z,16.90
2017-10-01T15:53:32.932Z,17.00
2017-10-01T15:56:00.489Z,17.00
2017-10-01T15:58:28.092Z,17.00
2017-10-01T16:00:55.661Z,17.00
2017-10-01T16:03:23.215Z,17.10
2017-10-01T16:05:51.567Z,17.00
2017-10-01T16:08:19.162Z,17.00
2017-10-01T16:10:47.649Z,17.00
2017-10-01T16:13:15.267Z,17.00
2017-10-01T16:15:42.829Z,17.00
2017-10-01T16:18:10.402Z,16.90
2017-10-01T16:20:38.774Z,16.80
2017-10-01T16:23:06.339Z,16.70
2017-10-01T16:25:33.951Z,16.80
2017-10-01T16:28:01.562Z,16.80
2017-10-01T16:30:29.325Z,16.70
2017-10-01T16:32:57.157Z,16.60
2017-10-01T16:35:25.177Z,16.60
2017-10-01T16:37:53.742Z,16.50
2017-10-01T16:40:21.463Z,16.40
2017-10-01T16:42:49.057Z,16.50
2017-10-01T16:45:16.941Z,16.40
2017-10-01T16:47:44.759Z,16.30
2017-10-01T16:50:12.510Z,16.30
2017-10-01T16:52:41.908Z,16.30
2017-10-01T16:55:10.476Z,16.30
2017-10-01T16:57:38.270Z,16.30
2017-10-01T17:00:06.710Z,16.20
2017-10-01T17:02:35.080Z,16.20
2017-10-01T17:05:02.648Z,16.20
2017-10-01T17:07:30.386Z,16.10
2017-10-01T17:09:58.112Z,16.20
2017-10-01T17:12:26.521Z,16.10
2017-10-01T17:14:54.176Z,16.10
2017-10-01T17:17:21.846Z,16.10
2017-10-01T17:19:49.489Z,16.10
2017-10-01T17:22:17.245Z,16.10
2017-10-01T17:24:44.879Z,16.10
2017-10-01T17:27:12.470Z,16.10
2017-10-01T17:29:40.813Z,16.10
2017-10-01T17:32:08.597Z,16.10
2017-10-01T17:34:36.318Z,16.10
2017-10-01T17:37:03.900Z,16.10
2017-10-01T17:39:31.478Z,16.10
2017-10-01T17:41:59.081Z,16.00
2017-10-01T17:44:27.461Z,16.00
2017-10-01T17:46:55.852Z,16.00
2017-10-01T17:49:24.274Z,15.90
2017-10-01T17:51:51.943Z,15.90
2017-10-01T17:54:19.545Z,15.90
2017-10-01T17:56:47.881Z,15.80
2017-10-01T17:59:15.478Z,15.80
2017-10-01T18:01:43.826Z,16.00
2017-10-01T18:04:11.405Z,15.90
2017-10-01T18:06:39.752Z,15.80
2017-10-01T18:09:07.332Z,15.80
2017-10-01T18:11:34.939Z,15.80
2017-10-01T18:14:03.296Z,15.60
2017-10-01T18:16:30.918Z,15.50
2017-10-01T18:18:58.521Z,15.60
2017-10-01T18:21:26.897Z,15.50
2017-10-01T18:23:55.286Z,15.50
2017-10-01T18:26:23.639Z,15.50
2017-10-01T18:28:51.236Z,15.50
2017-10-01T18:31:19.591Z,15.50
2017-10-01T18:33:47.170Z,15.50
2017-10-01T18:36:15.537Z,15.50
2017-10-01T18:38:43.187Z,15.50
2017-10-01T18:41:10.762Z,15.50
2017-10-01T18:43:38.366Z,15.50
2017-10-01T18:46:05.975Z,15.40
2017-10-01T18:48:33.653Z,15.50
2017-10-01T18:51:01.365Z,15.60
2017-10-01T18:53:29.026Z,15.60
2017-10-01T18:55:56.629Z,15.60
2017-10-01T18:58:24.249Z,15.60
2017-10-01T19:00:51.826Z,15.60
2017-10-01T19:03:19.526Z,15.70
2017-10-01T19:05:47.121Z,15.70
2017-10-01T19:08:15.485Z,15.60
2017-10-01T19:10:43.958Z,15.60
2017-10-01T19:13:11.610Z,15.60
2017-10-01T19:15:40.050Z,15.60
2017-10-01T19:18:07.637Z,15.60
2017-10-01T19:20:35.213Z,15.60
2017-10-01T19:23:02.896Z,15.60
2017-10-01T19:25:31.225Z,15.50
2017-10-01T19:27:58.812Z,15.50
2017-10-01T19:30:26.676Z,15.50
2017-10-01T19:32:54.276Z,15.50
2017-10-01T19:35:22.652Z,15.40
2017-10-01T19:37:51.073Z,15.40
2017-10-01T19:40:18.743Z,15.40
2017-10-01T19:42:46.352Z,15.40
2017-10-01T19:45:14.741Z,15.30
2017-10-01T19:47:42.342Z,15.30
2017-10-01T19:50:09.930Z,15.30
2017-10-01T19:52:37.590Z,15.30
2017-10-01T19:55:05.319Z,15.30
2017-10-01T19:57:33.638Z,15.30
2017-10-01T20:00:01.290Z,15.20
2017-10-01T20:02:29.024Z,15.30
2017-10-01T20:04:57.387Z,15.20
2017-10-01T20:07:25.733Z,15.10
2017-10-01T20:09:53.375Z,15.10
2017-10-01T20:12:20.979Z,15.10
2017-10-01T20:14:48.682Z,15.00
2017-10-01T20:17:17.145Z,15.00
2017-10-01T20:19:44.741Z,14.90
2017-10-01T20:22:12.319Z,15.00
2017-10-01T20:24:39.923Z,15.00
2017-10-01T20:27:07.514Z,15.00
2017-10-01T20:29:35.945Z,14.90
2017-10-01T20:32:03.651Z,14.90
2017-10-01T20:34:31.481Z,15.00
2017-10-01T20:36:59.183Z,15.00
2017-10-01T20:39:27.691Z,15.00
2017-10-01T20:41:55.272Z,14.90
2017-10-01T20:44:22.917Z,15.00
2017-10-01T20:46:51.235Z,14.90
2017-10-01T20:49:18.850Z,14.90
2017-10-01T20:51:46.608Z,15.00
2017-10-01T20:54:14.210Z,15.00
2017-10-01T20:56:41.886Z,15.00
2017-10-01T20:59:09.574Z,15.00
2017-10-01T21:01:37.317Z,15.00
2017-10-01T21:04:04.913Z,15.00
2017-10-01T21:06:33.234Z,15.00
2017-10-01T21:09:01.662Z,15.00
2017-10-01T21:11:29.242Z,15.00
2017-10-01T21:13:56.834Z,15.00
2017-10-01T21:16:25.286Z,14.90
2017-10-01T21:18:52.865Z,14.90
2017-10-01T21:21:21.689Z,14.90
2017-10-01T21:23:49.352Z,15.00
2017-10-01T21:26:16.954Z,14.90
2017-10-01T21:28:44.621Z,14.90
2017-10-01T21:31:12.217Z,14.90
2017-10-01T21:33:40.619Z,14.90
2017-10-01T21:36:08.355Z,14.90
2017-10-01T21:38:36.884Z,14.90
2017-10-01T21:41:04.474Z,14.90
2017-10-01T21:43:32.156Z,14.80
2017-10-01T21:45:59.736Z,14.80
2017-10-01T21:48:28.593Z,14.80
2017-10-01T21:50:56.374Z,14.80
2017-10-01T21:53:24.159Z,14.80
2017-10-01T21:55:52.646Z,14.80
2017-10-01T21:58:21.090Z,14.80
2017-10-01T22:00:48.803Z,14.70
2017-10-01T22:03:16.379Z,14.70
2017-10-01T22:05:44.065Z,14.70
2017-10-01T22:08:11.716Z,14.60
2017-10-01T22:10:39.315Z,14.60
2017-10-01T22:13:06.917Z,14.60
2017-10-01T22:15:34.537Z,14.60
2017-10-01T22:18:02.136Z,14.50
2017-10-01T22:20:30.505Z,14.50
2017-10-01T22:22:58.931Z,14.50
2017-10-01T22:25:26.497Z,14.50
2017-10-01T22:27:54.091Z,14.50
2017-10-01T22:30:21.653Z,14.50
2017-10-01T22:32:49.994Z,14.50
2017-10-01T22:35:17.576Z,14.40
2017-10-01T22:37:45.167Z,14.50
2017-10-01T22:40:12.884Z,14.50
2017-10-01T22:42:40.588Z,14.50
2017-10-01T22:45:08.198Z,14.50
2017-10-01T22:47:35.840Z,14.50
2017-10-01T22:50:03.547Z,14.50
2017-10-01T22:52:31.199Z,14.50
2017-10-01T22:54:58.785Z,14.50
2017-10-01T22:57:26.429Z,14.50
2017-10-01T22:59:54.050Z,14.50
2017-10-01T23:02:22.654Z,14.50
2017-10-01T23:04:50.209Z,14.50
2017-10-01T23:07:17.823Z,14.50
2017-10-01T23:09:45.444Z,14.50
2017-10-01T23:12:13.849Z,14.50
2017-10-01T23:14:41.566Z,14.50
2017-10-01T23:17:09.959Z,14.50
2017-10-01T23:19:38.326Z,14.50
2017-10-01T23:22:06.826Z,14.50
2017-10-01T23:24:35.287Z,14.50
2017-10-01T23:27:02.969Z,14.50
2017-10-01T23:29:31.339Z,14.50
2017-10-01T23:31:59.677Z,14.50
2017-10-01T23:34:27.273Z,14.50
2017-10-01T23:36:55.611Z,14.50
2017-10-01T23:39:23.941Z,14.50
2017-10-01T23:41:52.414Z,14.50
2017-10-01T23:44:20.879Z,14.50
2017-10-01T23:46:49.443Z,14.50
2017-10-01T23:49:17.218Z,14.50
2017-10-01T23:51:46.421Z,14.40
2017-10-01T23:54:15.032Z,14.40
2017-10-01T23:56:42.707Z,14.40
2017-10-01T23:59:10.340Z,14.40
